Time;durP1;ratioP1;P1;durP2;ratioP2;P2;SDS_P1;SDS_P2;PMS_P1;PMS_P2;Temp;Humidity;BMP_temperature;BMP_pressure;BME280_temperature;BME280_humidity;BME280_pressure;Samples;Min_cycle;Max_cycle;Signal;HPM_P1;HPM_P2
2022/08/29 00:00:17;;;;;;;6.20;3.90;;;;;;;24.37;71.39;98427.06;5032358;28;20166;-61
2022/08/29 00:02:42;;;;;;;6.28;4.13;;;;;;;24.29;71.24;98422.94;5029866;28;20098;-61
2022/08/29 00:05:08;;;;;;;6.25;3.90;;;;;;;24.25;71.98;98413.03;5034913;28;20519;-61
2022/08/29 00:07:34;;;;;;;6.28;4.07;;;;;;;24.16;72.58;98396.66;5028493;28;20030;-63
2022/08/29 00:09:59;;;;;;;6.63;3.67;;;;;;;24.21;72.97;98411.91;5029285;28;20033;-63
2022/08/29 00:12:24;;;;;;;7.78;4.25;;;;;;;24.13;73.42;98416.56;5031175;28;20067;-61
2022/08/29 00:14:50;;;;;;;6.65;3.80;;;;;;;24.12;73.47;98414.13;5033971;28;20116;-60
2022/08/29 00:17:15;;;;;;;7.57;4.40;;;;;;;24.15;73.31;98411.00;5031756;28;20037;-61
2022/08/29 00:19:41;;;;;;;6.70;4.07;;;;;;;23.95;73.39;98380.38;5032343;28;20616;-64
2022/08/29 00:22:06;;;;;;;5.90;4.22;;;;;;;24.11;73.44;98413.34;5032737;28;20025;-63
2022/08/29 00:24:32;;;;;;;7.22;4.28;;;;;;;24.14;73.08;98426.13;5030656;28;20032;-63
2022/08/29 00:26:59;;;;;;;6.05;3.90;;;;;;;24.21;73.23;98430.50;5033532;28;20041;-61
2022/08/29 00:29:25;;;;;;;6.25;3.83;;;;;;;24.06;73.49;98399.13;5033097;28;20121;-63
2022/08/29 00:31:50;;;;;;;7.07;4.65;;;;;;;24.22;72.60;98432.09;5036071;28;20037;-63
2022/08/29 00:34:16;;;;;;;7.20;4.30;;;;;;;24.05;73.77;98435.50;5030455;28;20420;-61
2022/08/29 00:36:41;;;;;;;6.85;4.10;;;;;;;23.97;73.72;98444.66;5037389;28;20043;-64
2022/08/29 00:39:07;;;;;;;7.18;4.03;;;;;;;24.08;73.40;98439.56;5030155;28;20721;-61
2022/08/29 00:41:32;;;;;;;7.45;4.05;;;;;;;24.06;73.35;98439.78;5033787;28;20029;-62
2022/08/29 00:43:58;;;;;;;7.10;4.63;;;;;;;23.87;73.89;98441.78;5033587;28;20515;-61
2022/08/29 00:46:33;;;;;;;7.65;4.53;;;;;;;23.67;75.02;98441.34;5037869;28;20121;-62
2022/08/29 00:49:04;;;;;;;7.40;4.45;;;;;;;23.68;75.63;98435.03;5033167;28;20056;-64
2022/08/29 00:51:30;;;;;;;7.70;5.07;;;;;;;23.65;75.76;98419.56;5035687;28;20167;-61
2022/08/29 00:54:04;;;;;;;8.65;5.10;;;;;;;23.71;76.06;98438.03;5014084;28;20664;-61
2022/08/29 00:56:30;;;;;;;9.25;5.47;;;;;;;23.55;76.58;98423.63;5024353;28;20613;-63
2022/08/29 00:59:11;;;;;;;7.35;5.55;;;;;;;23.43;76.90;98412.22;5027605;28;20037;-62
2022/08/29 01:01:38;;;;;;;8.60;5.72;;;;;;;23.57;77.06;98453.38;5033292;28;20094;-62
2022/08/29 01:04:04;;;;;;;8.18;5.80;;;;;;;23.47;77.41;98457.66;5020635;28;20025;-62
2022/08/29 01:06:30;;;;;;;8.98;5.80;;;;;;;23.36;77.28;98435.41;5019257;28;20064;-60
2022/08/29 01:08:56;;;;;;;8.48;5.90;;;;;;;23.58;77.16;98468.28;5029512;28;20041;-60
2022/08/29 01:14:07;;;;;;;7.70;4.88;;;;;;;23.58;77.65;98478.06;5035085;28;20036;-60
2022/08/29 01:16:32;;;;;;;6.25;4.40;;;;;;;23.33;78.55;98457.91;5022110;28;20044;-63
2022/08/29 01:19:02;;;;;;;8.00;4.85;;;;;;;23.45;78.85;98476.44;5029491;28;20030;-60
2022/08/29 01:21:49;;;;;;;6.57;4.68;;;;;;;23.00;79.55;98432.72;5028650;28;20033;-60
2022/08/29 01:24:14;;;;;;;6.78;4.93;;;;;;;23.29;80.78;98487.75;5028708;28;20037;-61
2022/08/29 01:26:41;;;;;;;6.57;5.10;;;;;;;22.89;81.01;98438.00;5033734;28;20029;-61
2022/08/29 01:29:07;;;;;;;6.30;4.20;;;;;;;23.20;81.29;98487.28;5021357;28;20033;-61
2022/08/29 01:31:47;;;;;;;6.43;4.40;;;;;;;23.14;80.99;98467.00;5041451;28;20032;-63
2022/08/29 01:34:15;;;;;;;6.68;4.50;;;;;;;23.25;80.77;98489.25;5021096;28;20037;-62
2022/08/29 01:36:47;;;;;;;6.53;4.75;;;;;;;23.22;81.43;98490.53;5035798;28;20037;-60
2022/08/29 01:39:13;;;;;;;6.60;4.68;;;;;;;23.15;81.55;98472.06;5031798;28;20578;-61
2022/08/29 01:41:40;;;;;;;6.72;4.55;;;;;;;23.22;81.28;98486.03;5038160;28;20467;-60
2022/08/29 01:44:14;;;;;;;6.03;4.47;;;;;;;23.38;80.79;98481.06;5019242;28;20337;-61
2022/08/29 01:46:39;;;;;;;7.30;4.57;;;;;;;23.27;80.44;98465.97;5034476;28;20450;-60
2022/08/29 01:49:07;;;;;;;6.43;4.28;;;;;;;23.37;80.81;98490.09;5029922;28;20022;-61
2022/08/29 01:51:34;;;;;;;7.30;4.10;;;;;;;23.35;80.50;98489.50;5025382;28;20060;-61
2022/08/29 01:53:59;;;;;;;6.88;4.25;;;;;;;23.37;80.98;98482.91;5023562;28;20138;-60
2022/08/29 01:56:30;;;;;;;7.60;4.50;;;;;;;23.23;80.52;98453.16;5040955;28;20219;-60
2022/08/29 01:58:57;;;;;;;6.03;4.18;;;;;;;23.35;80.54;98481.56;5041035;28;20032;-62
2022/08/29 02:01:25;;;;;;;6.55;4.20;;;;;;;23.28;80.94;98473.69;5041860;28;20082;-61
2022/08/29 02:03:51;;;;;;;7.73;4.10;;;;;;;23.09;80.86;98458.91;5034915;28;20021;-60
2022/08/29 02:06:16;;;;;;;6.50;4.28;;;;;;;23.27;80.90;98484.53;5034934;28;20035;-60
2022/08/29 02:08:43;;;;;;;5.65;3.95;;;;;;;23.20;81.31;98485.47;5033764;28;20086;-62
2022/08/29 02:11:11;;;;;;;7.40;4.53;;;;;;;23.12;81.75;98469.88;5032938;28;20637;-61
2022/08/29 02:13:38;;;;;;;9.05;4.28;;;;;;;23.07;82.95;98488.31;5019857;28;20033;-61
2022/08/29 02:16:03;;;;;;;7.22;4.50;;;;;;;23.02;83.44;98482.88;5024886;28;20822;-59
2022/08/29 02:18:29;;;;;;;5.63;4.18;;;;;;;22.94;83.79;98488.50;5033774;28;20041;-60
2022/08/29 02:20:55;;;;;;;7.78;4.30;;;;;;;22.88;84.01;98482.28;5030892;28;20034;-62
2022/08/29 02:23:20;;;;;;;7.00;4.57;;;;;;;22.88;83.82;98478.81;5036127;28;20592;-60
2022/08/29 02:25:46;;;;;;;6.68;4.88;;;;;;;22.89;83.60;98469.81;5039354;28;20725;-60
2022/08/29 02:28:17;;;;;;;6.95;4.43;;;;;;;22.89;83.15;98465.34;5035075;28;20028;-60
2022/08/29 02:30:45;;;;;;;6.97;4.60;;;;;;;22.83;83.60;98468.88;5025529;28;20032;-60
2022/08/29 02:33:12;;;;;;;6.90;4.47;;;;;;;22.84;83.61;98468.66;5033279;28;20040;-62
2022/08/29 02:35:39;;;;;;;6.40;4.50;;;;;;;22.70;84.83;98464.59;5030112;28;20115;-60
2022/08/29 02:38:05;;;;;;;7.32;4.50;;;;;;;22.56;86.37;98463.16;5034337;28;20044;-60
2022/08/29 02:40:31;;;;;;;8.23;4.70;;;;;;;22.57;84.75;98455.00;5040404;28;20029;-62
2022/08/29 02:42:57;;;;;;;6.13;4.50;;;;;;;22.62;84.61;98455.13;5037738;28;20037;-60
2022/08/29 02:45:23;;;;;;;6.75;4.53;;;;;;;22.69;83.79;98451.56;5036938;28;20040;-60
2022/08/29 02:47:49;;;;;;;6.80;4.75;;;;;;;22.61;84.21;98456.16;5027023;28;20041;-62
2022/08/29 02:50:15;;;;;;;6.65;4.32;;;;;;;22.65;84.48;98451.22;5014458;28;20037;-60
2022/08/29 02:52:42;;;;;;;7.15;4.70;;;;;;;22.62;83.67;98441.09;5016340;28;21785;-60
2022/08/29 02:55:11;;;;;;;9.02;4.80;;;;;;;22.65;83.85;98446.75;5042070;28;20041;-62
2022/08/29 02:57:37;;;;;;;7.32;4.20;;;;;;;22.52;83.70;98419.63;5024878;28;20063;-60
2022/08/29 03:00:07;;;;;;;6.60;4.60;;;;;;;22.60;84.02;98464.34;5034826;28;20029;-61
2022/08/29 03:02:32;;;;;;;7.28;4.10;;;;;;;22.57;84.42;98451.53;5040359;28;20031;-62
2022/08/29 03:04:58;;;;;;;7.15;5.28;;;;;;;22.59;84.43;98463.53;5038058;28;20029;-61
2022/08/29 03:07:24;;;;;;;9.32;4.45;;;;;;;22.46;84.24;98438.03;5035383;28;20982;-61
2022/08/29 03:09:49;;;;;;;6.32;4.50;;;;;;;22.33;85.05;98432.13;5037191;28;20583;-61
2022/08/29 03:12:15;;;;;;;6.38;4.43;;;;;;;22.60;84.29;98459.06;5016081;28;20052;-60
2022/08/29 03:14:40;;;;;;;6.57;4.75;;;;;;;;;;5028237;28;20567;-62
2022/08/29 03:17:06;;;;;;;7.68;4.65;;;;;;;22.49;84.46;98457.16;5024776;28;20816;-60
2022/08/29 03:19:31;;;;;;;9.48;5.80;;;;;;;22.45;84.67;98454.97;5037045;28;20027;-60
2022/08/29 03:21:57;;;;;;;7.82;4.68;;;;;;;22.46;85.37;98461.88;5036533;28;20036;-61
2022/08/29 03:24:22;;;;;;;7.35;4.68;;;;;;;22.39;85.92;98458.50;5042261;28;20036;-61
2022/08/29 03:26:48;;;;;;;7.95;4.88;;;;;;;22.33;85.97;98448.81;5035895;28;20120;-61
2022/08/29 03:29:13;;;;;;;7.00;4.53;;;;;;;22.20;86.14;98425.16;5045197;28;20074;-61
2022/08/29 03:31:38;;;;;;;7.38;5.00;;;;;;;22.48;85.59;98460.84;5032416;28;20120;-61
2022/08/29 03:34:04;;;;;;;7.22;4.90;;;;;;;22.54;85.54;98457.28;5042261;28;20025;-61
2022/08/29 03:36:31;;;;;;;6.85;4.95;;;;;;;22.59;85.63;98460.06;5040681;28;20573;-60
2022/08/29 03:38:56;;;;;;;6.60;4.70;;;;;;;22.55;86.15;98458.91;5034235;28;20079;-62
2022/08/29 03:41:25;;;;;;;6.28;4.57;;;;;;;22.53;85.74;98456.50;5031328;28;20045;-62
2022/08/29 03:43:51;;;;;;;7.68;4.53;;;;;;;22.57;84.61;98464.78;5020267;28;20487;-61
2022/08/29 03:46:16;;;;;;;5.80;4.30;;;;;;;22.46;85.21;98458.44;5038971;28;20032;-62
2022/08/29 03:48:42;;;;;;;7.40;4.55;;;;;;;;;;5031924;28;20112;-62
2022/08/29 03:51:08;;;;;;;7.63;4.93;;;;;;;22.45;85.46;98462.94;5038231;28;20412;-61
2022/08/29 03:53:33;;;;;;;7.47;5.00;;;;;;;22.32;86.11;98464.94;5030031;28;20088;-61
2022/08/29 03:55:59;;;;;;;7.30;4.35;;;;;;;22.32;85.82;98464.94;5036729;28;20473;-61
2022/08/29 03:58:24;;;;;;;7.00;4.63;;;;;;;22.39;86.07;98469.09;5038524;28;20052;-62
2022/08/29 04:00:50;;;;;;;6.85;4.65;;;;;;;22.26;86.13;98443.59;5029833;28;20112;-62
2022/08/29 04:03:15;;;;;;;7.10;4.57;;;;;;;22.34;86.10;98468.16;5040870;28;20035;-62
2022/08/29 04:05:41;;;;;;;9.25;5.05;;;;;;;22.30;86.43;98478.41;5035849;28;20026;-61
2022/08/29 04:08:07;;;;;;;7.18;4.57;;;;;;;22.16;85.17;98467.16;5035111;28;20674;-61
2022/08/29 04:10:38;;;;;;;7.65;4.45;;;;;;;22.10;84.34;98469.88;5035594;28;20036;-61
2022/08/29 04:13:05;;;;;;;6.05;4.10;;;;;;;22.13;83.15;98470.25;5035889;28;20013;-61
2022/08/29 04:15:32;;;;;;;8.77;4.45;;;;;;;22.03;83.37;98470.78;5040387;28;20033;-62
2022/08/29 04:17:59;;;;;;;6.60;4.70;;;;;;;22.10;83.51;98469.88;5021334;28;20159;-62
2022/08/29 04:20:28;;;;;;;6.28;4.50;;;;;;;22.04;84.16;98482.97;5022449;28;20034;-62
2022/08/29 04:22:55;;;;;;;8.52;4.95;;;;;;;21.96;84.90;98483.28;5022031;28;20037;-60
2022/08/29 04:25:21;;;;;;;6.53;4.25;;;;;;;22.03;85.17;98486.66;5037203;28;20028;-61
2022/08/29 04:27:48;;;;;;;7.18;4.88;;;;;;;22.04;85.85;98476.88;5003467;28;20148;-60
2022/08/29 04:30:15;;;;;;;7.55;5.13;;;;;;;22.01;86.33;98493.19;5034420;28;20064;-62
2022/08/29 04:32:41;;;;;;;7.40;4.90;;;;;;;22.02;86.76;98485.03;5031947;28;20083;-61
2022/08/29 04:35:08;;;;;;;6.45;4.72;;;;;;;21.84;87.03;98464.66;5031225;28;20033;-60
2022/08/29 04:37:33;;;;;;;7.63;4.82;;;;;;;21.79;86.49;98458.41;5030044;28;20517;-61
2022/08/29 04:40:00;;;;;;;7.60;5.00;;;;;;;21.91;86.23;98492.91;5026318;28;20032;-61
2022/08/29 04:42:26;;;;;;;7.55;4.68;;;;;;;21.66;87.12;98468.13;5027570;28;20033;-60
2022/08/29 04:44:51;;;;;;;6.53;4.40;;;;;;;21.93;85.70;98496.16;5039350;28;20028;-60
2022/08/29 04:47:17;;;;;;;6.03;4.22;;;;;;;21.86;86.03;98490.91;5026408;28;20042;-61
2022/08/29 04:49:42;;;;;;;6.18;4.38;;;;;;;21.91;85.35;98499.00;5037508;28;20035;-60
2022/08/29 04:52:09;;;;;;;5.97;4.13;;;;;;;21.85;85.04;98510.47;5034606;28;20056;-61
2022/08/29 04:54:34;;;;;;;5.97;4.07;;;;;;;21.80;84.77;98497.09;5035706;28;20031;-60
2022/08/29 04:57:02;;;;;;;6.57;4.10;;;;;;;21.64;84.25;98478.13;5037531;28;20033;-60
2022/08/29 04:59:28;;;;;;;6.18;4.35;;;;;;;21.81;83.96;98515.41;5018695;28;20120;-60
2022/08/29 05:01:54;;;;;;;6.25;4.40;;;;;;;21.77;83.77;98513.41;5034201;28;20073;-61
2022/08/29 05:04:19;;;;;;;7.15;4.38;;;;;;;21.41;83.54;98456.75;5025822;28;20171;-62
2022/08/29 05:06:45;;;;;;;6.70;3.90;;;;;;;21.83;83.56;98515.16;5021907;28;20206;-60
2022/08/29 05:09:10;;;;;;;6.78;4.00;;;;;;;21.80;82.13;98512.97;5028373;28;20384;-62
2022/08/29 05:11:35;;;;;;;5.88;4.05;;;;;;;21.71;81.66;98486.00;5018584;28;20040;-61
2022/08/29 05:14:01;;;;;;;6.00;4.20;;;;;;;21.87;82.26;98505.78;5024175;28;20104;-61
2022/08/29 05:16:28;;;;;;;5.78;4.00;;;;;;;21.80;82.09;98512.97;5024704;28;20403;-60
2022/08/29 05:18:55;;;;;;;6.85;3.90;;;;;;;21.92;81.14;98519.13;5023769;28;20041;-60
2022/08/29 05:21:27;;;;;;;6.05;4.20;;;;;;;21.85;81.91;98519.22;5031307;28;20484;-62
2022/08/29 05:23:55;;;;;;;6.38;4.10;;;;;;;21.90;81.27;98518.56;5017437;28;20064;-65
2022/08/29 05:26:20;;;;;;;5.72;3.90;;;;;;;21.85;81.16;98521.06;5025536;28;20021;-61
2022/08/29 05:28:46;;;;;;;6.28;4.03;;;;;;;21.83;81.19;98517.81;5017244;28;20048;-60
2022/08/29 05:31:13;;;;;;;5.72;3.75;;;;;;;21.75;82.74;98523.41;5021346;28;20120;-61
2022/08/29 05:33:39;;;;;;;6.68;4.07;;;;;;;21.48;83.38;98490.09;5034869;28;20021;-60
2022/08/29 05:36:05;;;;;;;8.10;4.32;;;;;;;21.72;83.55;98523.84;5029737;28;20032;-60
2022/08/29 05:38:30;;;;;;;5.55;3.85;;;;;;;21.60;83.89;98513.97;5033428;28;20578;-61
2022/08/29 05:40:55;;;;;;;7.10;4.30;;;;;;;21.63;83.92;98525.94;5024465;28;20684;-60
2022/08/29 05:43:21;;;;;;;6.45;4.10;;;;;;;21.66;83.99;98528.16;5013432;28;20796;-62
2022/08/29 05:45:46;;;;;;;6.22;4.20;;;;;;;21.65;83.92;98522.06;5034681;28;20040;-60
2022/08/29 05:48:13;;;;;;;5.57;4.10;;;;;;;21.61;83.61;98526.19;5028438;28;20026;-61
2022/08/29 05:50:40;;;;;;;5.85;3.97;;;;;;;21.67;83.28;98529.78;5024147;28;20742;-61
2022/08/29 05:53:07;;;;;;;7.35;4.25;;;;;;;21.60;83.37;98529.06;5010557;28;20410;-61
2022/08/29 05:55:38;;;;;;;7.93;4.50;;;;;;;21.64;83.02;98530.22;5019331;28;20052;-60
2022/08/29 05:58:03;;;;;;;5.82;4.15;;;;;;;21.58;83.18;98529.25;5015416;28;20040;-60
2022/08/29 06:00:29;;;;;;;6.55;4.32;;;;;;;21.64;84.30;98535.50;5014518;28;20030;-61
2022/08/29 06:02:54;;;;;;;7.28;4.22;;;;;;;21.67;83.43;98532.44;5028584;28;20113;-60
2022/08/29 06:05:20;;;;;;;6.25;4.07;;;;;;;21.64;83.42;98535.50;5023574;28;20128;-60
2022/08/29 06:07:45;;;;;;;7.30;3.83;;;;;;;21.66;83.40;98538.75;5033451;28;20029;-62
2022/08/29 06:10:10;;;;;;;5.90;4.03;;;;;;;21.63;83.46;98536.53;5034119;28;20319;-64
2022/08/29 06:12:36;;;;;;;6.32;4.25;;;;;;;21.49;83.48;98509.41;5030831;28;20080;-62
2022/08/29 06:15:02;;;;;;;6.82;4.40;;;;;;;21.48;82.71;98502.50;5028012;28;20217;-61
2022/08/29 06:17:27;;;;;;;10.25;4.53;;;;;;;21.58;82.63;98542.50;5033128;28;20083;-60
2022/08/29 06:19:53;;;;;;;9.13;4.28;;;;;;;21.48;82.96;98526.28;4962451;28;20061;-64
2022/08/29 06:22:18;;;;;;;8.45;4.30;;;;;;;21.60;83.72;98553.66;5032037;28;20051;-60
2022/08/29 06:24:44;;;;;;;10.35;4.50;;;;;;;21.60;82.99;98556.31;5031374;28;20254;-60
2022/08/29 06:27:11;;;;;;;7.63;4.32;;;;;;;21.63;83.15;98547.13;5034064;28;20029;-60
2022/08/29 06:29:36;;;;;;;10.85;4.20;;;;;;;21.45;83.02;98521.47;5020997;28;20040;-61
2022/08/29 06:32:02;;;;;;;8.35;5.05;;;;;;;21.45;82.55;98524.09;5033144;28;20036;-61
2022/08/29 06:34:27;;;;;;;9.30;4.40;;;;;;;21.65;83.21;98553.81;5012811;28;20734;-64
2022/08/29 06:36:53;;;;;;;8.05;4.18;;;;;;;21.76;83.16;98559.41;5033237;28;20041;-62
2022/08/29 06:39:18;;;;;;;7.07;4.78;;;;;;;21.75;82.76;98566.53;5005477;28;20115;-61
2022/08/29 06:41:44;;;;;;;7.95;4.25;;;;;;;21.75;84.16;98565.75;5016446;28;20060;-63
2022/08/29 06:44:09;;;;;;;7.68;4.80;;;;;;;21.71;83.38;98560.06;5029195;28;20495;-62
2022/08/29 06:46:39;;;;;;;6.85;4.40;;;;;;;21.73;83.44;98555.38;5032169;28;20100;-60
2022/08/29 06:49:06;;;;;;;12.18;4.53;;;;;;;21.86;82.18;98559.72;5028995;28;20124;-62
2022/08/29 06:51:35;;;;;;;6.15;4.57;;;;;;;21.89;82.49;98568.03;5019264;28;20037;-61
2022/08/29 06:54:02;;;;;;;8.40;4.37;;;;;;;21.87;82.87;98556.88;5010982;28;20059;-62
2022/08/29 06:56:28;;;;;;;6.85;4.45;;;;;;;21.61;82.89;98526.19;5018043;28;20057;-62
2022/08/29 06:58:54;;;;;;;6.93;4.18;;;;;;;21.88;83.24;98566.41;5017627;28;20662;-63
2022/08/29 07:01:20;;;;;;;7.03;4.88;;;;;;;21.89;83.19;98564.59;5066240;28;20040;-62
2022/08/29 07:03:46;;;;;;;7.38;4.82;;;;;;;21.94;83.00;98562.09;5020863;28;20464;-64
2022/08/29 07:06:12;;;;;;;7.57;4.60;;;;;;;21.76;82.51;98539.06;5036416;28;20078;-62
2022/08/29 07:08:38;;;;;;;6.47;4.45;;;;;;;22.01;82.56;98557.56;5033954;28;20526;-62
2022/08/29 07:11:03;;;;;;;6.50;4.38;;;;;;;22.06;81.85;98557.66;5019589;28;20361;-60
2022/08/29 07:13:30;;;;;;;7.07;4.30;;;;;;;22.11;82.01;98557.03;5024505;28;20025;-62
2022/08/29 07:15:56;;;;;;;6.00;4.30;;;;;;;22.20;82.93;98561.00;5030291;28;20041;-62
2022/08/29 07:18:21;;;;;;;7.85;4.47;;;;;;;22.26;83.10;98564.63;4958115;28;20277;-61
2022/08/29 07:20:47;;;;;;;6.10;4.35;;;;;;;22.32;82.31;98568.22;5027188;28;20440;-63
2022/08/29 07:23:12;;;;;;;6.13;4.18;;;;;;;22.37;82.01;98568.38;5031100;28;20253;-61
2022/08/29 07:25:38;;;;;;;7.35;4.68;;;;;;;22.44;81.54;98574.41;5035828;28;20483;-61
2022/08/29 07:28:04;;;;;;;7.28;4.78;;;;;;;22.43;83.18;98575.41;5031034;28;20029;-62
2022/08/29 07:30:30;;;;;;;6.82;4.60;;;;;;;22.39;84.22;98577.69;5018873;28;20033;-61
2022/08/29 07:32:55;;;;;;;6.53;4.38;;;;;;;22.38;83.47;98578.75;5028852;28;20454;-63
2022/08/29 07:35:21;;;;;;;9.68;4.90;;;;;;;22.31;84.00;98585.16;5031465;28;20532;-61
2022/08/29 07:37:46;;;;;;;7.68;4.53;;;;;;;22.33;84.12;98573.31;5019996;28;20123;-60
2022/08/29 07:40:14;;;;;;;7.25;4.88;;;;;;;22.40;84.44;98576.69;5031831;28;20667;-62
2022/08/29 07:42:39;;;;;;;9.55;5.05;;;;;;;22.46;83.14;98586.38;5013657;28;20029;-62
2022/08/29 07:45:06;;;;;;;14.32;5.93;;;;;;;22.48;82.55;98583.50;5031947;28;20032;-61
2022/08/29 07:47:33;;;;;;;21.40;6.78;;;;;;;22.48;83.51;98588.81;5032287;28;20519;-62
2022/08/29 07:50:00;;;;;;;9.05;5.65;;;;;;;22.18;84.07;98557.75;5034098;28;20044;-62
2022/08/29 07:52:27;;;;;;;6.38;4.60;;;;;;;22.38;84.08;98589.34;5018521;28;20499;-62
2022/08/29 07:54:53;;;;;;;10.40;5.53;;;;;;;22.48;83.51;98588.00;5017520;28;20081;-63
2022/08/29 07:57:19;;;;;;;10.10;5.40;;;;;;;22.17;82.46;98528.84;5004780;28;20863;-61
2022/08/29 07:59:44;;;;;;;8.32;5.03;;;;;;;22.42;83.26;98587.88;5063121;28;20025;-64
2022/08/29 08:02:10;;;;;;;7.00;5.00;;;;;;;22.46;83.26;98588.22;5027653;28;20048;-61
2022/08/29 08:04:35;;;;;;;28.92;7.18;;;;;;;22.49;82.90;98592.25;5026626;28;20030;-61
2022/08/29 08:07:02;;;;;;;19.02;5.80;;;;;;;22.62;83.28;98592.13;5027973;28;20781;-62
2022/08/29 08:09:27;;;;;;;9.10;5.18;;;;;;;22.68;81.75;98585.13;5032642;28;20029;-64
2022/08/29 08:11:53;;;;;;;9.00;5.43;;;;;;;22.56;81.14;98559.38;5027455;28;20110;-61
2022/08/29 08:14:18;;;;;;;7.93;4.95;;;;;;;22.77;80.55;98591.72;5028164;28;20116;-61
2022/08/29 08:16:44;;;;;;;8.45;4.70;;;;;;;22.82;81.23;98582.06;4943586;28;20041;-62
2022/08/29 08:19:11;;;;;;;8.95;5.18;;;;;;;22.78;81.88;98557.03;5021388;28;20029;-60
2022/08/29 08:21:37;;;;;;;7.93;5.03;;;;;;;23.05;79.44;98588.50;5017300;28;20124;-61
2022/08/29 08:24:03;;;;;;;95.22;8.75;;;;;;;23.07;80.27;98589.06;5036367;28;20024;-61
2022/08/29 08:26:28;;;;;;;8.45;5.00;;;;;;;23.02;79.81;98581.78;5037028;28;20095;-60
2022/08/29 08:28:53;;;;;;;7.07;4.80;;;;;;;22.97;80.10;98589.59;5026461;28;20033;-61
2022/08/29 08:31:19;;;;;;;8.88;4.97;;;;;;;22.98;79.19;98595.69;5025257;28;20108;-63
2022/08/29 08:33:45;;;;;;;7.60;4.95;;;;;;;23.03;79.65;98596.63;5020092;28;20017;-60
2022/08/29 08:36:30;;;;;;;5.93;4.53;;;;;;;24.10;75.14;98594.16;5012581;28;20029;-60
2022/08/29 08:38:57;;;;;;;7.15;4.68;;;;;;;25.27;68.98;98594.84;5019726;28;20029;-60
2022/08/29 08:41:25;;;;;;;8.70;4.80;;;;;;;26.10;66.49;98592.34;5006410;28;20419;-62
2022/08/29 08:44:06;;;;;;;10.17;5.10;;;;;;;24.94;69.20;98581.22;5029662;28;20053;-61
2022/08/29 08:46:31;;;;;;;8.48;5.05;;;;;;;24.69;71.08;98594.84;5024392;28;20022;-61
2022/08/29 08:49:00;;;;;;;8.50;4.63;;;;;;;24.60;72.47;98569.69;5028906;28;20166;-60
2022/08/29 08:51:30;;;;;;;6.28;4.65;;;;;;;24.69;70.95;98594.84;5013992;28;20138;-61
2022/08/29 08:53:57;;;;;;;6.30;4.50;;;;;;;24.31;72.26;98590.91;5034163;28;20171;-60
2022/08/29 08:56:42;;;;;;;7.32;5.10;;;;;;;24.27;73.22;98591.59;5015863;28;20026;-61
2022/08/29 08:59:19;;;;;;;6.82;4.75;;;;;;;24.21;74.20;98590.69;5055506;28;20024;-60
2022/08/29 09:01:54;;;;;;;6.88;4.88;;;;;;;24.07;74.49;98589.31;5020405;28;20091;-61
2022/08/29 09:04:34;;;;;;;7.22;4.78;;;;;;;24.15;75.20;98583.66;5037516;28;20025;-61
2022/08/29 09:07:02;;;;;;;7.22;5.00;;;;;;;24.13;73.63;98586.53;5034714;28;20029;-62
2022/08/29 09:09:36;;;;;;;6.50;4.63;;;;;;;24.14;73.72;98588.13;5030745;28;20079;-60
2022/08/29 09:12:14;;;;;;;6.63;4.43;;;;;;;24.12;70.97;98555.69;5022347;28;20056;-61
2022/08/29 09:14:54;;;;;;;7.60;4.65;;;;;;;24.45;71.44;98582.66;5021712;28;20020;-62
2022/08/29 09:17:23;;;;;;;6.38;4.80;;;;;;;24.77;71.26;98587.53;5030871;28;20024;-61
2022/08/29 09:19:49;;;;;;;7.72;4.30;;;;;;;24.81;71.50;98586.03;5031860;28;20033;-60
2022/08/29 09:22:25;;;;;;;6.53;4.82;;;;;;;24.69;71.35;98549.66;5017915;28;20028;-61
2022/08/29 09:24:58;;;;;;;7.33;4.83;;;;;;;24.85;68.77;98573.88;5036341;28;20135;-61
2022/08/29 09:27:27;;;;;;;6.65;4.93;;;;;;;24.62;68.13;98548.97;5032702;28;20067;-61
2022/08/29 09:30:00;;;;;;;8.05;4.47;;;;;;;24.80;69.91;98579.09;5021703;28;20147;-61
2022/08/29 09:32:26;;;;;;;6.97;4.68;;;;;;;24.98;69.00;98576.22;5025549;28;20032;-62
2022/08/29 09:34:51;;;;;;;7.72;4.40;;;;;;;25.12;67.06;98574.88;4960166;28;20025;-60
2022/08/29 09:37:31;;;;;;;6.75;4.15;;;;;;;25.04;67.69;98572.59;5029096;28;20409;-61
2022/08/29 09:40:09;;;;;;;8.32;4.25;;;;;;;25.14;67.55;98574.66;5033585;28;20033;-62
2022/08/29 09:42:37;;;;;;;7.55;4.22;;;;;;;25.14;65.54;98572.78;5033585;28;20654;-62
2022/08/29 09:45:08;;;;;;;6.75;4.40;;;;;;;25.18;65.33;98569.66;5022892;28;20025;-62
2022/08/29 09:47:34;;;;;;;7.55;3.90;;;;;;;25.41;64.61;98574.84;5032225;28;20032;-60
2022/08/29 09:50:11;;;;;;;6.03;4.07;;;;;;;25.39;64.82;98568.97;5018285;28;20442;-62
2022/08/29 09:52:39;;;;;;;8.40;4.18;;;;;;;25.46;65.19;98555.47;5027434;28;20087;-60
2022/08/29 09:55:27;;;;;;;9.83;4.93;;;;;;;25.53;66.65;98558.78;5032090;28;20029;-61
2022/08/29 09:57:58;;;;;;;7.13;4.00;;;;;;;25.73;66.94;98557.47;5030228;28;20262;-62
2022/08/29 10:00:28;;;;;;;7.35;3.92;;;;;;;25.77;64.70;98564.72;5019211;28;20021;-61
2022/08/29 10:02:58;;;;;;;6.18;3.72;;;;;;;25.82;66.11;98564.78;5027304;28;20127;-60
2022/08/29 10:05:45;;;;;;;;;;;;;;;25.81;65.14;98559.72;5006746;28;20047;-62
2022/08/29 10:08:35;;;;;;;5.30;3.67;;;;;;;25.95;65.38;98552.22;5050296;28;20026;-61
2022/08/29 10:11:15;;;;;;;7.32;3.38;;;;;;;26.06;62.74;98543.28;5054899;28;20281;-61
2022/08/29 10:13:50;;;;;;;5.57;3.30;;;;;;;26.16;61.27;98539.94;5030979;28;20024;-60
2022/08/29 10:16:38;;;;;;;6.90;3.35;;;;;;;26.20;59.95;98539.22;5030712;28;20024;-61
2022/08/29 10:19:26;;;;;;;11.32;4.10;;;;;;;26.15;62.73;98522.34;5016348;28;20033;-61
2022/08/29 10:22:03;;;;;;;6.10;3.55;;;;;;;26.09;61.55;98534.81;5026279;28;20026;-61
2022/08/29 10:24:56;;;;;;;5.25;3.08;;;;;;;25.96;60.02;98509.34;5011605;28;20030;-62
2022/08/29 10:27:21;;;;;;;9.52;3.15;;;;;;;26.29;59.97;98536.91;5013218;28;20099;-62
2022/08/29 10:30:15;;;;;;;5.80;3.00;;;;;;;26.39;58.04;98539.69;5029410;28;20047;-60
2022/08/29 10:32:59;;;;;;;7.53;2.97;;;;;;;26.62;58.89;98530.63;5011061;28;20029;-60
2022/08/29 10:35:29;;;;;;;5.85;3.50;;;;;;;26.69;58.66;98540.28;5033195;28;20163;-61
2022/08/29 10:38:11;;;;;;;6.20;3.35;;;;;;;26.39;60.67;98509.56;5012670;28;20029;-61
2022/08/29 10:40:47;;;;;;;5.82;3.17;;;;;;;26.43;56.73;98530.16;5027774;28;20068;-61
2022/08/29 10:43:30;;;;;;;4.88;2.40;;;;;;;26.88;55.28;98525.53;5052159;28;20053;-63
2022/08/29 10:46:12;;;;;;;4.95;3.00;;;;;;;27.02;57.39;98524.06;4935551;28;20036;-62
2022/08/29 10:49:12;;;;;;;4.82;2.70;;;;;;;27.14;55.23;98496.41;5033783;28;20112;-61
2022/08/29 10:52:00;;;;;;;;;;;;;;;27.39;54.13;98522.50;5026817;28;20095;-61
2022/08/29 10:54:53;;;;;;;6.73;2.70;;;;;;;27.36;54.19;98523.00;5016630;28;19928;-62
2022/08/29 10:57:54;;;;;;;4.57;2.65;;;;;;;27.32;56.06;98519.25;5026670;28;20403;-61
2022/08/29 11:00:30;;;;;;;5.88;3.28;;;;;;;27.42;57.01;98522.00;5028269;28;20603;-63
2022/08/29 11:03:21;;;;;;;5.93;3.17;;;;;;;27.41;55.94;98518.50;4999906;28;20057;-62
2022/08/29 11:05:54;;;;;;;5.75;2.88;;;;;;;27.46;53.35;98515.09;5046680;28;20116;-61
2022/08/29 11:08:27;;;;;;;6.47;2.90;;;;;;;27.32;54.09;98489.88;5028583;28;20025;-60
2022/08/29 11:10:52;;;;;;;5.03;2.55;;;;;;;27.34;52.40;98499.25;4943015;28;20498;-62
2022/08/29 11:13:44;;;;;;;4.90;2.42;;;;;;;27.41;51.36;98510.50;5038862;28;20013;-61
2022/08/29 11:16:37;;;;;;;5.00;2.80;;;;;;;27.46;55.00;98514.28;5022229;28;20040;-63
2022/08/29 11:19:12;;;;;;;5.38;2.70;;;;;;;27.52;52.65;98519.38;5022047;28;21269;-63
2022/08/29 11:21:59;;;;;;;6.80;2.92;;;;;;;27.57;52.23;98511.41;5018492;28;20041;-63
2022/08/29 11:24:28;;;;;;;6.32;2.88;;;;;;;27.77;50.82;98513.38;5032714;28;20026;-63
2022/08/29 11:27:19;;;;;;;4.90;2.30;;;;;;;27.79;50.72;98513.94;5020809;28;20033;-61
2022/08/29 11:30:00;;;;;;;4.90;2.30;;;;;;;27.92;49.94;98515.34;5031426;28;20112;-61
2022/08/29 11:32:38;;;;;;;4.70;2.65;;;;;;;27.98;49.67;98511.66;5023941;28;20055;-62
2022/08/29 11:35:19;;;;;;;5.40;2.53;;;;;;;28.07;47.52;98505.78;5019904;28;20029;-62
2022/08/29 11:38:22;;;;;;;5.82;2.08;;;;;;;28.08;44.07;98496.72;5030228;28;20035;-62
2022/08/29 11:41:09;;;;;;;4.82;2.55;;;;;;;27.82;50.58;98475.22;5036551;28;20037;-61
2022/08/29 11:43:40;;;;;;;5.43;2.50;;;;;;;28.05;46.94;98495.38;5012999;28;20673;-62
2022/08/29 11:46:07;;;;;;;4.63;2.35;;;;;;;28.17;47.25;98495.16;5050758;28;20021;-61